Time;durP1;ratioP1;P1;durP2;ratioP2;P2;SDS_P1;SDS_P2;PMS_P1;PMS_P2;Temp;Humidity;BMP_temperature;BMP_pressure;BME280_temperature;BME280_humidity;BME280_pressure;Samples;Min_cycle;Max_cycle;Signal;HPM_P1;HPM_P2
2021/06/25 00:00:18;;;;;;;0.50;0.50;;;;;;;15.21;84.75;97151.81;29395;226;63009;-63
2021/06/25 00:00:49;;;;;;;0.50;0.50;;;;;;;15.25;84.82;97156.28;29395;222;63005;-65
2021/06/25 00:01:21;;;;;;;0.50;0.50;;;;;;;15.29;83.96;97146.34;29394;204;64013;-70
2021/06/25 00:01:52;;;;;;;0.40;0.40;;;;;;;15.41;83.32;97148.47;29395;252;63005;-55
2021/06/25 00:02:23;;;;;;;0.50;0.50;;;;;;;15.46;82.80;97148.34;29395;222;63017;-67
2021/06/25 00:02:54;;;;;;;0.50;0.50;;;;;;;15.47;82.73;97149.13;29395;316;63005;-61
2021/06/25 00:03:27;;;;;;;0.50;0.50;;;;;;;15.42;82.63;97148.16;29395;228;63009;-61
2021/06/25 00:03:59;;;;;;;0.50;0.50;;;;;;;15.36;83.08;97146.69;29395;311;63004;-64
2021/06/25 00:04:30;;;;;;;0.50;0.50;;;;;;;15.33;83.13;97152.78;29395;224;63019;-63
2021/06/25 00:05:01;;;;;;;0.50;0.50;;;;;;;15.30;83.90;97147.94;29395;204;63004;-65
2021/06/25 00:05:32;;;;;;;0.50;0.50;;;;;;;15.29;83.97;97146.34;29395;238;63009;-64
2021/06/25 00:06:04;;;;;;;0.50;0.50;;;;;;;15.27;84.40;97143.13;29395;206;63004;-68
2021/06/25 00:06:36;;;;;;;0.50;0.50;;;;;;;15.26;84.09;97141.50;29394;224;64013;-63
2021/06/25 00:07:08;;;;;;;0.50;0.50;;;;;;;15.23;84.38;97150.37;29395;260;63005;-64
2021/06/25 00:07:39;;;;;;;0.50;0.50;;;;;;;15.20;84.76;97142.00;29395;230;63009;-60
2021/06/25 00:08:11;;;;;;;0.50;0.50;;;;;;;15.13;85.48;97142.44;29395;215;63005;-62
2021/06/25 00:08:42;;;;;;;0.50;0.50;;;;;;;15.08;85.59;97148.03;29395;197;63009;-61
2021/06/25 00:09:13;;;;;;;0.50;0.50;;;;;;;15.07;85.58;97154.62;29395;225;63012;-63
2021/06/25 00:09:44;;;;;;;0.50;0.50;;;;;;;15.06;85.52;97144.81;29395;210;63009;-63
2021/06/25 00:10:16;;;;;;;0.50;0.50;;;;;;;15.05;85.24;97138.53;29395;374;63005;-63
2021/06/25 00:10:48;;;;;;;0.50;0.50;;;;;;;15.07;85.51;97147.25;29395;203;63009;-62
2021/06/25 00:11:19;;;;;;;0.50;0.50;;;;;;;15.08;85.38;97139.84;29395;306;63004;-65
2021/06/25 00:11:50;;;;;;;0.50;0.50;;;;;;;15.09;85.37;97144.19;29394;237;64013;-66
2021/06/25 00:12:21;;;;;;;0.50;0.50;;;;;;;15.08;85.14;97150.78;29395;272;63004;-62
2021/06/25 00:12:53;;;;;;;0.50;0.50;;;;;;;15.08;85.47;97145.31;29395;277;63009;-63
2021/06/25 00:13:24;;;;;;;0.50;0.50;;;;;;;15.06;85.72;97147.56;29395;234;63004;-63
2021/06/25 00:13:55;;;;;;;0.50;0.50;;;;;;;15.04;85.63;97152.53;29395;223;63008;-64
2021/06/25 00:14:26;;;;;;;0.50;0.50;;;;;;;15.02;86.00;97149.31;29395;356;63004;-63
2021/06/25 00:14:57;;;;;;;0.50;0.50;;;;;;;15.03;85.95;97145.44;29395;209;63009;-64
2021/06/25 00:15:29;;;;;;;0.50;0.50;;;;;;;15.01;85.76;97143.03;29395;311;63005;-66
2021/06/25 00:16:01;;;;;;;0.50;0.50;;;;;;;15.03;85.61;97153.66;29395;225;63009;-62
2021/06/25 00:16:32;;;;;;;0.50;0.50;;;;;;;15.02;85.69;97147.38;29395;264;63005;-63
2021/06/25 00:17:04;;;;;;;0.50;0.50;;;;;;;15.02;85.56;97146.56;29395;218;64013;-65
2021/06/25 00:17:36;;;;;;;0.50;0.50;;;;;;;15.08;85.97;97145.31;29395;225;63005;-68
2021/06/25 00:18:08;;;;;;;0.50;0.50;;;;;;;15.09;85.73;97145.00;29395;212;63018;-65
2021/06/25 00:18:39;;;;;;;0.50;0.50;;;;;;;15.09;85.73;97146.91;29395;213;63005;-65
2021/06/25 00:19:10;;;;;;;0.50;0.50;;;;;;;15.08;85.57;97148.03;29395;224;63014;-65
2021/06/25 00:19:41;;;;;;;0.50;0.50;;;;;;;15.07;85.56;97143.69;29395;219;63004;-65
2021/06/25 00:20:14;;;;;;;0.50;0.50;;;;;;;15.07;85.74;97149.16;29395;224;63009;-64
2021/06/25 00:20:46;;;;;;;0.50;0.50;;;;;;;15.05;85.96;97149.47;29395;236;63004;-63
2021/06/25 00:21:17;;;;;;;0.50;0.50;;;;;;;15.02;85.94;97144.63;29395;223;63008;-63
2021/06/25 00:21:49;;;;;;;0.50;0.50;;;;;;;15.00;85.80;97144.16;29395;243;63004;-65
2021/06/25 00:22:20;;;;;;;0.50;0.50;;;;;;;15.02;85.93;97143.84;29394;230;64014;-66
2021/06/25 00:22:52;;;;;;;0.50;0.50;;;;;;;15.05;86.16;97138.53;29395;199;63005;-63
2021/06/25 00:23:23;;;;;;;0.50;0.50;;;;;;;15.06;85.79;97142.87;29395;228;63009;-64
2021/06/25 00:23:54;;;;;;;0.50;0.50;;;;;;;15.05;86.04;97148.66;29395;339;63005;-64
2021/06/25 00:24:26;;;;;;;0.50;0.50;;;;;;;15.04;86.53;97144.31;29395;234;63019;-63
2021/06/25 00:24:58;;;;;;;0.50;0.50;;;;;;;15.02;86.75;97150.09;29395;203;63005;-64
2021/06/25 00:25:29;;;;;;;0.50;0.50;;;;;;;15.05;86.29;97151.41;29395;202;63009;-63
2021/06/25 00:26:00;;;;;;;0.50;0.50;;;;;;;15.06;86.25;97142.09;29395;239;63005;-64
2021/06/25 00:26:31;;;;;;;0.50;0.50;;;;;;;15.08;85.84;97145.31;29395;267;63013;-67
2021/06/25 00:27:03;;;;;;;0.50;0.50;;;;;;;15.09;85.88;97139.53;29395;239;63004;-65
2021/06/25 00:27:35;;;;;;;0.50;0.50;;;;;;;15.07;85.77;97143.69;29394;243;64032;-62
2021/06/25 00:28:06;;;;;;;0.50;0.50;;;;;;;15.05;85.65;97145.94;29395;230;63004;-64
2021/06/25 00:28:38;;;;;;;0.50;0.50;;;;;;;15.04;85.78;97149.78;29395;232;63009;-64
2021/06/25 00:29:09;;;;;;;0.50;0.50;;;;;;;15.03;85.95;97148.97;29395;223;63004;-67
2021/06/25 00:29:40;;;;;;;0.50;0.50;;;;;;;15.03;86.04;97143.53;29395;230;63009;-64
2021/06/25 00:30:15;;;;;;;0.50;0.50;;;;;;;15.05;86.08;97145.94;29396;272;63005;-64
2021/06/25 00:30:47;;;;;;;0.50;0.50;;;;;;;15.05;86.12;97140.47;29395;307;63009;-63
2021/06/25 00:31:18;;;;;;;0.50;0.50;;;;;;;15.01;86.06;97139.50;29395;274;63005;-64
2021/06/25 00:31:49;;;;;;;0.50;0.50;;;;;;;15.01;86.14;97145.75;29395;215;63009;-65
2021/06/25 00:32:21;;;;;;;0.50;0.50;;;;;;;15.11;85.83;97139.22;29395;206;63005;-67
2021/06/25 00:32:52;;;;;;;0.50;0.50;;;;;;;15.15;85.24;97144.88;29394;212;64013;-63
2021/06/25 00:33:23;;;;;;;0.50;0.50;;;;;;;15.12;85.46;97140.81;29395;355;63005;-64
2021/06/25 00:33:54;;;;;;;0.50;0.50;;;;;;;15.11;85.87;97143.87;29395;262;63014;-63
2021/06/25 00:34:25;;;;;;;0.50;0.50;;;;;;;15.08;86.09;97145.31;29395;202;63004;-65
2021/06/25 00:34:56;;;;;;;0.50;0.50;;;;;;;15.04;86.30;97145.13;29395;226;63009;-64
2021/06/25 00:35:28;;;;;;;0.50;0.50;;;;;;;15.07;86.53;97146.44;29395;208;63010;-70
2021/06/25 00:35:59;;;;;;;0.50;0.50;;;;;;;15.12;85.42;97149.03;29395;223;63009;-68
2021/06/25 00:36:31;;;;;;;0.50;0.50;;;;;;;15.15;84.79;97147.59;29395;227;63004;-77
2021/06/25 00:37:04;;;;;;;0.50;0.50;;;;;;;15.22;84.36;97143.28;29395;233;63008;-66
2021/06/25 00:37:35;;;;;;;0.50;0.50;;;;;;;15.23;84.45;97141.34;29395;221;63005;-65
2021/06/25 00:38:07;;;;;;;0.50;0.50;;;;;;;15.20;84.47;97142.00;29394;292;64014;-63
2021/06/25 00:38:38;;;;;;;0.50;0.50;;;;;;;15.15;84.66;97142.94;29395;214;63005;-68
2021/06/25 00:39:09;;;;;;;0.50;0.50;;;;;;;15.13;84.71;97149.84;29395;203;63009;-66
2021/06/25 00:39:40;;;;;;;0.50;0.50;;;;;;;15.12;85.03;97149.03;29394;206;64009;-64
2021/06/25 00:40:13;;;;;;;0.50;0.50;;;;;;;15.09;85.61;97141.47;29395;197;63009;-65
2021/06/25 00:40:44;;;;;;;0.50;0.50;;;;;;;15.07;85.75;97149.16;29395;205;63005;-67
2021/06/25 00:41:15;;;;;;;0.50;0.50;;;;;;;15.08;85.58;97151.59;29395;311;63009;-68
2021/06/25 00:41:47;;;;;;;0.50;0.50;;;;;;;15.12;84.88;97142.75;29394;208;64009;-68
2021/06/25 00:42:18;;;;;;;0.50;0.50;;;;;;;15.18;84.38;97153.22;29395;197;63009;-71
2021/06/25 00:42:50;;;;;;;0.50;0.50;;;;;;;15.19;84.27;97143.91;29395;238;63004;-61
2021/06/25 00:43:21;;;;;;;0.50;0.50;;;;;;;15.16;84.12;97150.00;29395;207;63009;-65
2021/06/25 00:43:53;;;;;;;0.50;0.50;;;;;;;15.11;84.87;97144.69;29394;204;64008;-64
2021/06/25 00:44:24;;;;;;;0.50;0.50;;;;;;;15.06;85.79;97147.56;29395;239;63008;-63
2021/06/25 00:44:56;;;;;;;0.50;0.50;;;;;;;15.01;86.06;97144.94;29395;205;63005;-65
2021/06/25 00:45:27;;;;;;;0.50;0.50;;;;;;;14.98;85.77;97146.38;29395;198;63009;-65
2021/06/25 00:45:58;;;;;;;0.50;0.50;;;;;;;15.00;86.36;97140.59;29395;229;63005;-68
2021/06/25 00:46:31;;;;;;;0.50;0.50;;;;;;;15.00;85.99;97146.06;29395;266;63019;-63
2021/06/25 00:47:03;;;;;;;0.50;0.50;;;;;;;14.99;85.72;97144.47;29394;221;64009;-69
2021/06/25 00:47:34;;;;;;;0.50;0.50;;;;;;;15.01;85.44;97147.69;29395;225;63009;-66
2021/06/25 00:48:06;;;;;;;0.50;0.50;;;;;;;15.05;85.28;97140.47;29395;379;63005;-65
2021/06/25 00:48:39;;;;;;;0.50;0.50;;;;;;;15.05;85.42;97145.94;29395;222;63016;-64
2021/06/25 00:49:11;;;;;;;0.50;0.50;;;;;;;15.04;85.27;97145.13;29395;224;63004;-64
2021/06/25 00:49:42;;;;;;;0.50;0.50;;;;;;;15.03;85.56;97148.97;29395;217;63009;-66
2021/06/25 00:50:18;;;;;;;0.50;0.50;;;;;;;15.06;85.45;97144.81;29395;379;63004;-67
2021/06/25 00:50:50;;;;;;;0.50;0.50;;;;;;;15.06;85.19;97153.03;29394;221;63009;-68
2021/06/25 00:51:22;;;;;;;0.50;0.50;;;;;;;15.05;84.93;97140.47;29395;233;63004;-67
2021/06/25 00:51:53;;;;;;;0.50;0.50;;;;;;;15.08;85.15;97153.50;29394;202;64013;-66
2021/06/25 00:52:25;;;;;;;0.50;0.50;;;;;;;15.08;84.99;97150.78;29395;308;63005;-63
2021/06/25 00:52:57;;;;;;;0.50;0.50;;;;;;;15.07;84.92;97140.97;29395;227;63015;-68
2021/06/25 00:53:29;;;;;;;0.50;0.50;;;;;;;15.09;84.58;97146.91;29395;219;63005;-62
2021/06/25 00:54:04;;;;;;;0.50;0.50;;;;;;;15.06;85.02;97148.34;29395;286;63024;-70
2021/06/25 00:54:35;;;;;;;0.50;0.50;;;;;;;15.04;84.97;97153.34;29395;236;63005;-66
2021/06/25 00:55:08;;;;;;;0.50;0.50;;;;;;;15.03;85.12;97148.97;29395;219;63009;-62
2021/06/25 00:55:43;;;;;;;0.50;0.50;;;;;;;15.00;85.07;97146.88;29395;247;63005;-62
2021/06/25 00:56:15;;;;;;;0.50;0.50;;;;;;;14.97;85.43;97146.69;29394;200;64013;-65
2021/06/25 00:56:46;;;;;;;0.50;0.50;;;;;;;15.00;85.45;97149.59;29395;203;63008;-67
2021/06/25 00:57:17;;;;;;;0.50;0.50;;;;;;;15.03;84.80;97153.66;29395;234;63009;-65
2021/06/25 00:57:49;;;;;;;0.50;0.50;;;;;;;15.06;84.63;97150.28;29396;288;63004;-65
2021/06/25 00:58:22;;;;;;;0.50;0.50;;;;;;;15.05;84.70;97145.94;29395;208;63009;-67
2021/06/25 00:58:53;;;;;;;0.50;0.50;;;;;;;15.06;84.74;97150.28;29395;236;63004;-62
2021/06/25 00:59:24;;;;;;;0.50;0.50;;;;;;;15.05;84.64;97140.47;29395;239;63008;-63
2021/06/25 00:59:56;;;;;;;0.50;0.50;;;;;;;15.05;85.19;97151.41;29394;244;64009;-65
2021/06/25 01:00:28;;;;;;;0.50;0.50;;;;;;;15.01;84.83;97151.22;29395;284;63009;-66
2021/06/25 01:00:59;;;;;;;0.50;0.50;;;;;;;15.00;85.41;97151.53;29395;216;63007;-62
2021/06/25 01:01:31;;;;;;;0.50;0.50;;;;;;;15.01;85.47;97147.69;29395;216;63009;-65
2021/06/25 01:02:03;;;;;;;0.50;0.50;;;;;;;15.00;85.67;97146.88;29395;198;63005;-75
2021/06/25 01:02:34;;;;;;;0.50;0.50;;;;;;;15.02;85.42;97154.75;29395;343;63009;-67
2021/06/25 01:03:05;;;;;;;0.50;0.50;;;;;;;14.98;85.46;97148.31;29394;205;64009;-67
2021/06/25 01:03:36;;;;;;;0.50;0.50;;;;;;;14.95;85.36;97149.75;29395;265;63009;-70
2021/06/25 01:04:08;;;;;;;0.50;0.50;;;;;;;14.97;85.89;97152.16;29395;227;63004;-75
2021/06/25 01:04:39;;;;;;;0.50;0.50;;;;;;;14.98;85.59;97151.03;29394;231;64013;-67
2021/06/25 01:05:13;;;;;;;0.50;0.50;;;;;;;14.95;85.63;97146.22;29395;252;63004;-69
2021/06/25 01:05:44;;;;;;;0.50;0.50;;;;;;;14.93;85.75;97142.97;29394;228;64013;-66
2021/06/25 01:06:16;;;;;;;0.50;0.50;;;;;;;14.88;86.43;97145.88;29395;202;63004;-68
2021/06/25 01:06:47;;;;;;;0.50;0.50;;;;;;;14.85;86.57;97151.97;29395;238;63008;-68
2021/06/25 01:07:18;;;;;;;0.50;0.50;;;;;;;14.82;87.38;97150.66;29395;202;63004;-68
2021/06/25 01:07:49;;;;;;;0.50;0.50;;;;;;;14.78;87.07;97140.69;29395;237;63009;-68
2021/06/25 01:08:22;;;;;;;0.50;0.50;;;;;;;14.75;87.40;97144.84;29395;267;63005;-68
2021/06/25 01:08:53;;;;;;;0.50;0.50;;;;;;;14.73;87.75;97149.81;29395;258;63009;-68
2021/06/25 01:09:26;;;;;;;0.50;0.50;;;;;;;14.71;87.85;97144.66;29395;208;63005;-67
2021/06/25 01:09:58;;;;;;;0.50;0.50;;;;;;;14.71;87.68;97139.19;29394;203;64013;-69
2021/06/25 01:10:30;;;;;;;0.50;0.50;;;;;;;14.72;87.96;97148.19;29395;232;63005;-67
2021/06/25 01:11:02;;;;;;;0.50;0.50;;;;;;;14.70;87.94;97144.97;29395;211;63009;-68
2021/06/25 01:11:33;;;;;;;0.50;0.50;;;;;;;14.72;87.68;97140.81;29394;275;64009;-70
2021/06/25 01:12:06;;;;;;;0.50;0.50;;;;;;;14.73;87.83;97141.63;29395;214;63009;-68
2021/06/25 01:12:44;;;;;;;0.50;0.50;;;;;;;14.73;87.97;97147.06;29395;215;63004;-67
2021/06/25 01:13:15;;;;;;;0.50;0.50;;;;;;;14.74;87.72;97146.75;29395;202;63008;-69
2021/06/25 01:13:49;;;;;;;0.50;0.50;;;;;;;14.73;88.04;97150.63;29395;225;63004;-68
2021/06/25 01:14:21;;;;;;;0.50;0.50;;;;;;;14.74;87.99;97146.75;29395;264;63009;-67
2021/06/25 01:14:53;;;;;;;0.50;0.50;;;;;;;14.73;87.93;97149.81;29395;197;63005;-69
2021/06/25 01:15:24;;;;;;;0.50;0.50;;;;;;;14.72;88.17;97143.53;29395;214;63009;-69
2021/06/25 01:15:55;;;;;;;0.50;0.50;;;;;;;14.72;88.12;97146.28;29395;214;63005;-68
2021/06/25 01:16:27;;;;;;;0.50;0.50;;;;;;;14.73;88.10;97150.63;29394;287;64013;-67
2021/06/25 01:16:59;;;;;;;0.50;0.50;;;;;;;14.71;87.94;97146.56;29395;202;63005;-68
2021/06/25 01:17:36;;;;;;;0.50;0.50;;;;;;;14.67;87.67;97140.94;29395;202;63009;-68
2021/06/25 01:18:07;;;;;;;0.50;0.50;;;;;;;14.68;87.93;97147.19;29395;235;63005;-67
2021/06/25 01:18:38;;;;;;;0.50;0.50;;;;;;;14.66;87.81;97142.06;29395;258;63009;-68
2021/06/25 01:19:14;;;;;;;0.50;0.50;;;;;;;14.66;87.93;97152.16;29395;204;63004;-66
2021/06/25 01:19:48;;;;;;;0.50;0.50;;;;;;;14.65;87.97;97143.16;29395;196;63009;-68
2021/06/25 01:20:25;;;;;;;0.50;0.50;;;;;;;14.65;88.07;97145.09;29395;199;63004;-66
2021/06/25 01:20:58;;;;;;;0.50;0.50;;;;;;;14.65;88.14;97150.56;29394;226;64013;-66
2021/06/25 01:21:29;;;;;;;0.50;0.50;;;;;;;14.64;88.25;97155.22;29395;208;63004;-69
2021/06/25 01:22:00;;;;;;;0.50;0.50;;;;;;;14.63;88.12;97139.94;29395;197;63009;-66
2021/06/25 01:22:38;;;;;;;0.50;0.50;;;;;;;14.64;88.35;97149.75;29395;266;63005;-68
2021/06/25 01:23:10;;;;;;;0.50;0.50;;;;;;;14.64;88.58;97143.47;29395;245;63009;-66
2021/06/25 01:23:43;;;;;;;0.50;0.50;;;;;;;14.64;88.52;97157.94;29395;276;63005;-69
2021/06/25 01:24:14;;;;;;;0.50;0.50;;;;;;;14.65;88.40;97156.00;29395;258;63009;-68
2021/06/25 01:24:45;;;;;;;0.50;0.50;;;;;;;14.66;88.53;97144.78;29395;252;63005;-68
2021/06/25 01:25:33;;;;;;;0.50;0.50;;;;;;;14.65;88.09;97143.16;29395;197;63009;-68
2021/06/25 01:26:04;;;;;;;0.50;0.50;;;;;;;14.65;88.46;97143.16;29394;237;64009;-68
2021/06/25 01:26:35;;;;;;;0.50;0.50;;;;;;;14.67;88.16;97146.41;29395;311;63009;-70
2021/06/25 01:27:08;;;;;;;0.50;0.50;;;;;;;14.68;88.48;97141.75;29395;239;63004;-69
2021/06/25 01:27:43;;;;;;;0.50;0.50;;;;;;;14.70;88.22;97142.25;29395;214;63009;-68
2021/06/25 01:28:14;;;;;;;0.50;0.50;;;;;;;14.70;87.86;97140.31;29395;214;63004;-68
2021/06/25 01:28:45;;;;;;;0.50;0.50;;;;;;;14.70;87.95;97145.78;29395;295;63008;-67
2021/06/25 01:29:19;;;;;;;0.50;0.50;;;;;;;14.72;88.00;97149.00;29395;217;63005;-66
2021/06/25 01:29:50;;;;;;;0.50;0.50;;;;;;;14.76;87.78;97141.00;29395;361;63009;-66
2021/06/25 01:30:24;;;;;;;0.50;0.50;;;;;;;14.85;86.97;97141.84;29395;216;63005;-66
2021/06/25 01:30:57;;;;;;;0.50;0.50;;;;;;;14.85;86.34;97143.78;29394;236;64013;-67
2021/06/25 01:31:29;;;;;;;0.50;0.50;;;;;;;14.83;86.63;97137.81;29395;228;63005;-66
2021/06/25 01:32:00;;;;;;;0.50;0.50;;;;;;;14.81;86.80;97137.31;29395;331;63009;-67
2021/06/25 01:32:31;;;;;;;0.50;0.50;;;;;;;14.80;87.08;97138.44;29395;202;63005;-70
2021/06/25 01:33:05;;;;;;;0.50;0.50;;;;;;;14.84;86.68;97139.44;29395;358;63009;-67
2021/06/25 01:33:37;;;;;;;0.50;0.50;;;;;;;14.84;86.35;97133.97;29395;284;63004;-69
2021/06/25 01:34:09;;;;;;;0.50;0.50;;;;;;;14.85;86.24;97135.56;29395;197;63009;-68
2021/06/25 01:34:40;;;;;;;0.50;0.50;;;;;;;14.83;85.96;97133.16;29394;198;64009;-68
2021/06/25 01:35:13;;;;;;;0.50;0.50;;;;;;;14.92;85.77;97131.25;29395;212;63009;-70
2021/06/25 01:35:45;;;;;;;0.50;0.50;;;;;;;14.91;85.66;97137.03;29395;355;63004;-67
2021/06/25 01:36:17;;;;;;;0.50;0.50;;;;;;;14.89;85.28;97136.56;29395;278;63008;-66
2021/06/25 01:36:49;;;;;;;0.50;0.50;;;;;;;14.85;86.26;97138.31;29395;237;63016;-70
2021/06/25 01:37:20;;;;;;;0.50;0.50;;;;;;;14.84;86.50;97136.69;29395;240;63009;-65
2021/06/25 01:37:51;;;;;;;0.50;0.50;;;;;;;14.81;86.58;97129.13;29395;225;63001;-68
2021/06/25 01:38:24;;;;;;;0.50;0.50;;;;;;;14.79;86.29;97134.09;29395;204;63009;-67
2021/06/25 01:38:56;;;;;;;0.50;0.50;;;;;;;14.78;86.61;97135.22;29394;203;64009;-68
2021/06/25 01:39:28;;;;;;;0.50;0.50;;;;;;;14.75;86.73;97136.66;29395;222;63009;-66
2021/06/25 01:40:00;;;;;;;0.50;0.50;;;;;;;14.72;86.92;97138.06;29395;230;63005;-67
2021/06/25 01:40:32;;;;;;;0.50;0.50;;;;;;;14.71;87.24;97133.72;29395;237;63009;-68
2021/06/25 01:41:04;;;;;;;0.50;0.50;;;;;;;14.74;87.18;97132.31;29395;197;63004;-68
2021/06/25 01:41:39;;;;;;;0.50;0.50;;;;;;;14.75;87.48;97134.72;29395;284;63024;-70
2021/06/25 01:42:10;;;;;;;0.50;0.50;;;;;;;14.75;87.54;97134.72;29395;323;63004;-67
2021/06/25 01:42:44;;;;;;;0.50;0.50;;;;;;;14.79;87.41;97137.63;29395;217;63009;-67
2021/06/25 01:43:15;;;;;;;0.50;0.50;;;;;;;14.79;87.19;97136.81;29394;198;64009;-65
2021/06/25 01:43:49;;;;;;;0.50;0.50;;;;;;;14.75;87.14;97129.25;29395;196;63008;-68
2021/06/25 01:44:21;;;;;;;0.50;0.50;;;;;;;14.72;87.67;97126.34;29395;334;63005;-68
2021/06/25 01:44:56;;;;;;;0.50;0.50;;;;;;;14.72;87.65;97132.59;29395;215;63009;-69
2021/06/25 01:45:30;;;;;;;0.50;0.50;;;;;;;14.74;86.98;97130.38;29395;197;63011;-69
2021/06/25 01:46:03;;;;;;;0.50;0.50;;;;;;;14.75;86.68;97132.00;29395;211;63009;-71
2021/06/25 01:46:35;;;;;;;0.50;0.50;;;;;;;14.84;85.95;97125.78;29394;213;64009;-66
2021/06/25 01:47:06;;;;;;;0.50;0.50;;;;;;;14.86;85.59;97131.72;29395;222;63009;-69
2021/06/25 01:47:41;;;;;;;0.50;0.50;;;;;;;14.87;85.87;97127.87;29395;270;63005;-67
2021/06/25 01:48:12;;;;;;;0.50;0.50;;;;;;;14.90;85.93;97129.97;29395;285;63009;-67
2021/06/25 01:48:43;;;;;;;0.50;0.50;;;;;;;14.97;85.34;97122.91;29395;202;63004;-70
2021/06/25 01:49:15;;;;;;;0.50;0.50;;;;;;;14.98;85.14;97131.91;29395;198;63009;-69
2021/06/25 01:49:47;;;;;;;0.50;0.50;;;;;;;14.96;84.83;97128.69;29394;279;64009;-68
2021/06/25 01:50:21;;;;;;;0.50;0.50;;;;;;;14.96;84.89;97125.97;29395;237;63009;-68
2021/06/25 01:50:54;;;;;;;0.50;0.50;;;;;;;14.96;85.32;97131.44;29395;203;63004;-69
2021/06/25 01:51:25;;;;;;;0.50;0.50;;;;;;;14.92;85.16;97130.44;29395;245;63008;-70
2021/06/25 01:51:57;;;;;;;0.50;0.50;;;;;;;14.91;85.43;97128.81;29394;265;64009;-69
2021/06/25 01:52:28;;;;;;;0.50;0.50;;;;;;;14.89;85.27;97125.63;29395;334;63009;-68
2021/06/25 01:53:01;;;;;;;0.50;0.50;;;;;;;14.87;85.13;97133.34;29395;223;63005;-68
2021/06/25 01:53:32;;;;;;;0.50;0.50;;;;;;;14.85;85.34;97130.09;29395;210;63009;-68
2021/06/25 01:54:04;;;;;;;0.50;0.50;;;;;;;14.82;85.54;97136.19;29395;216;63005;-66
2021/06/25 01:54:35;;;;;;;0.50;0.50;;;;;;;14.75;86.20;97126.53;29395;253;63022;-66
2021/06/25 01:55:07;;;;;;;0.50;0.50;;;;;;;14.73;86.65;97128.75;29394;216;64009;-68
2021/06/25 01:55:40;;;;;;;0.50;0.50;;;;;;;14.72;86.51;97127.16;29395;296;63009;-67
2021/06/25 01:56:12;;;;;;;0.50;0.50;;;;;;;14.70;86.76;97131.31;29395;207;63004;-68
2021/06/25 01:56:46;;;;;;;0.50;0.50;;;;;;;14.67;86.55;97130.00;29395;213;63017;-68
2021/06/25 01:57:22;;;;;;;0.50;0.50;;;;;;;14.66;86.66;97128.41;29394;204;64009;-68
2021/06/25 01:57:54;;;;;;;0.50;0.50;;;;;;;14.66;86.97;97128.41;29395;210;63009;-66
2021/06/25 01:58:28;;;;;;;0.50;0.50;;;;;;;14.65;87.02;97132.25;29395;224;63004;-67
2021/06/25 01:58:59;;;;;;;0.50;0.50;;;;;;;14.63;87.17;97130.94;29395;233;63008;-67
2021/06/25 01:59:30;;;;;;;0.50;0.50;;;;;;;14.66;86.86;97128.41;29395;234;63005;-68
2021/06/25 02:00:04;;;;;;;0.50;0.50;;;;;;;14.70;86.69;97129.38;29394;227;64014;-66
2021/06/25 02:00:36;;;;;;;0.50;0.50;;;;;;;14.71;86.58;97124.72;29395;199;63005;-68
2021/06/25 02:01:14;;;;;;;0.50;0.50;;;;;;;14.71;86.54;97120.06;29395;236;63009;-66
2021/06/25 02:01:45;;;;;;;0.50;0.50;;;;;;;14.69;86.41;97124.22;29395;239;63005;-67
2021/06/25 02:02:16;;;;;;;0.50;0.50;;;;;;;14.70;86.45;97125.84;29395;213;63009;-68
2021/06/25 02:02:48;;;;;;;0.50;0.50;;;;;;;14.72;86.88;97127.16;29395;286;63005;-67
2021/06/25 02:03:19;;;;;;;0.50;0.50;;;;;;;14.75;86.54;97125.72;29395;224;63009;-69
2021/06/25 02:03:50;;;;;;;0.50;0.50;;;;;;;14.75;86.40;97121.06;29394;204;64009;-66
2021/06/25 02:04:21;;;;;;;0.50;0.50;;;;;;;14.71;86.84;97122.81;29395;207;63009;-68
2021/06/25 02:04:53;;;;;;;0.50;0.50;;;;;;;14.70;86.69;97121.19;29395;252;63004;-68
2021/06/25 02:05:24;;;;;;;0.50;0.50;;;;;;;14.73;86.83;97123.31;29394;240;64013;-81
2021/06/25 02:05:57;;;;;;;0.50;0.50;;;;;;;14.84;86.00;97114.84;29395;390;63004;-79
2021/06/25 02:06:29;;;;;;;0.50;0.50;;;;;;;14.87;85.30;97111.47;29395;272;63004;-67
2021/06/25 02:07:00;;;;;;;0.50;0.50;;;;;;;14.86;85.21;97123.53;29394;231;64009;-66
2021/06/25 02:07:35;;;;;;;0.50;0.50;;;;;;;14.82;85.26;97117.06;29395;207;63009;-66
2021/06/25 02:08:10;;;;;;;0.50;0.50;;;;;;;14.78;86.24;97119.63;29395;210;63005;-65
2021/06/25 02:08:42;;;;;;;0.50;0.50;;;;;;;14.78;86.20;97127.81;29394;197;64013;-68
2021/06/25 02:09:13;;;;;;;0.50;0.50;;;;;;;14.78;86.08;97116.91;29395;310;63005;-67
2021/06/25 02:09:46;;;;;;;0.50;0.50;;;;;;;14.77;85.54;97117.22;29394;205;64013;-69
2021/06/25 02:10:17;;;;;;;0.50;0.50;;;;;;;14.74;86.21;97119.44;29395;233;63004;-68
2021/06/25 02:10:48;;;;;;;0.50;0.50;;;;;;;14.72;85.90;97121.69;29395;229;63009;-66
2021/06/25 02:11:22;;;;;;;0.50;0.50;;;;;;;14.74;86.31;97130.38;29395;291;63008;-76
2021/06/25 02:11:53;;;;;;;0.50;0.50;;;;;;;14.78;85.64;97124.28;29395;297;63009;-68
2021/06/25 02:12:25;;;;;;;0.50;0.50;;;;;;;14.77;85.92;97128.13;29395;345;63004;-67
2021/06/25 02:12:57;;;;;;;0.50;0.50;;;;;;;14.75;85.56;97120.25;29394;257;64013;-66
2021/06/25 02:13:28;;;;;;;0.50;0.50;;;;;;;14.75;85.84;97125.72;29395;231;63004;-68
2021/06/25 02:13:59;;;;;;;0.50;0.50;;;;;;;14.73;86.14;97119.75;29395;213;63008;-67
2021/06/25 02:14:31;;;;;;;0.50;0.50;;;;;;;14.72;85.98;97120.87;29395;306;63005;-67
2021/06/25 02:15:05;;;;;;;0.50;0.50;;;;;;;14.71;86.35;97122.81;29395;298;63009;-68
2021/06/25 02:15:36;;;;;;;0.50;0.50;;;;;;;14.73;86.25;97117.03;29395;294;63005;-66
2021/06/25 02:16:08;;;;;;;0.50;0.50;;;;;;;14.72;85.94;97116.22;29395;212;63009;-67
2021/06/25 02:16:39;;;;;;;0.50;0.50;;;;;;;14.72;86.17;97120.87;29395;222;63005;-57
2021/06/25 02:17:11;;;;;;;0.50;0.50;;;;;;;14.71;86.40;97120.06;29395;218;63009;-70
2021/06/25 02:17:42;;;;;;;0.50;0.50;;;;;;;14.70;86.50;97118.47;29394;230;64009;-56
2021/06/25 02:18:13;;;;;;;0.50;0.50;;;;;;;14.70;86.27;97121.19;29395;214;63009;-68
2021/06/25 02:18:45;;;;;;;0.50;0.50;;;;;;;14.70;86.38;97115.72;29394;234;64009;-68
2021/06/25 02:19:16;;;;;;;0.50;0.50;;;;;;;14.68;86.15;97114.44;29395;224;63009;-67
2021/06/25 02:19:48;;;;;;;0.50;0.50;;;;;;;14.67;86.65;97119.09;29395;211;63004;-65
2021/06/25 02:20:20;;;;;;;0.50;0.50;;;;;;;14.64;86.55;97114.25;29395;343;63008;-66
2021/06/25 02:20:51;;;;;;;0.50;0.50;;;;;;;14.63;86.77;97118.09;29395;225;63004;-66
2021/06/25 02:21:22;;;;;;;0.50;0.50;;;;;;;14.62;86.64;97119.22;29394;197;64014;-67
2021/06/25 02:21:53;;;;;;;0.50;0.50;;;;;;;14.61;86.68;97109.41;29395;228;63005;-67
2021/06/25 02:22:25;;;;;;;0.50;0.50;;;;;;;14.61;87.23;97117.59;29395;364;63009;-67
2021/06/25 02:22:56;;;;;;;0.50;0.50;;;;;;;14.61;87.31;97114.06;29395;264;63010;-66
2021/06/25 02:23:27;;;;;;;0.50;0.50;;;;;;;14.60;87.51;97115.19;29395;221;63009;-66
2021/06/25 02:23:59;;;;;;;0.50;0.50;;;;;;;14.59;87.44;97117.09;29395;276;63005;-66
2021/06/25 02:24:31;;;;;;;0.50;0.50;;;;;;;14.57;87.78;97113.88;29395;308;63009;-66
2021/06/25 02:25:08;;;;;;;0.50;0.50;;;;;;;14.56;87.58;97116.91;29395;200;63008;-66
2021/06/25 02:25:42;;;;;;;0.50;0.50;;;;;;;14.56;87.81;97123.19;29395;274;63009;-67
2021/06/25 02:26:13;;;;;;;0.50;0.50;;;;;;;14.57;87.89;97118.53;29394;227;64009;-67
2021/06/25 02:26:45;;;;;;;0.50;0.50;;;;;;;14.56;87.85;97123.19;29395;199;63009;-67
2021/06/25 02:27:16;;;;;;;0.50;0.50;;;;;;;14.57;87.63;97119.34;29395;205;63004;-67
2021/06/25 02:27:47;;;;;;;0.50;0.50;;;;;;;14.58;87.82;97120.16;29395;199;63009;-67
2021/06/25 02:28:19;;;;;;;0.50;0.50;;;;;;;14.56;87.58;97117.72;29395;206;63010;-68
2021/06/25 02:28:50;;;;;;;0.50;0.50;;;;;;;14.55;87.84;97113.41;29395;298;63009;-67
2021/06/25 02:29:21;;;;;;;0.50;0.50;;;;;;;14.54;87.68;97122.72;29394;254;64009;-66
2021/06/25 02:29:53;;;;;;;0.50;0.50;;;;;;;14.53;87.86;97118.38;29395;286;63009;-69
2021/06/25 02:30:24;;;;;;;0.50;0.50;;;;;;;14.51;87.85;97119.81;29395;211;63005;-67
2021/06/25 02:30:57;;;;;;;0.50;0.50;;;;;;;14.51;88.51;97123.34;29395;276;63009;-66
2021/06/25 02:31:28;;;;;;;0.50;0.50;;;;;;;14.50;89.08;97119.00;29394;207;64009;-67
2021/06/25 02:32:02;;;;;;;0.50;0.50;;;;;;;14.51;88.80;97123.34;29395;325;63009;-67
2021/06/25 02:32:33;;;;;;;0.50;0.50;;;;;;;14.53;88.89;97123.03;29395;221;63005;-67